KCEY/CEY METAR and TAF weather

Enter ICAO airport designator
Station Type Date Time Source
KCEY METAR 2020/06/02 18:15 UTC NOAA

KCEY 021815Z AUTO 20008KT 10SM CLR 29/13 A3010 RMK AO1


Station Type Date Time Source
KCEY Decoded METAR 2020/06/02 18:15 UTC NOAA

Station name not available
Jun 02, 2020 - 02:15 PM EDT / 2020.06.02 1815 UTC
Wind: from the SSW (200 degrees) at 9 MPH (8 KT):0
Visibility: 10 mile(s):0
Sky conditions: clear
Temperature: 84 F (29 C)
Dew Point: 55 F (13 C)
Relative Humidity: 37%
Pressure (altimeter): 30.1 in. Hg (1019 hPa)
ob: KCEY 021815Z AUTO 20008KT 10SM CLR 29/13 A3010 RMK AO1
cycle: 18

Station Type Date Time Source
KCEY TAF UTC NOAA

Error!

Example: see airport list